Time;durP1;ratioP1;P1;durP2;ratioP2;P2;SDS_P1;SDS_P2;PMS_P1;PMS_P2;Temp;Humidity;BMP_temperature;BMP_pressure;BME280_temperature;BME280_humidity;BME280_pressure;Samples;Min_cycle;Max_cycle;Signal;HPM_P1;HPM_P2
2022/06/01 00:00:16;;;;;;;5.15;2.75;;;;;;;16.64;46.94;100993.38;5081442;28;20056;-49
2022/06/01 00:02:41;;;;;;;4.78;2.50;;;;;;;16.58;47.30;100994.69;5083322;28;20039;-55
2022/06/01 00:05:07;;;;;;;3.95;2.47;;;;;;;16.54;47.57;100995.94;5079488;28;20024;-54
2022/06/01 00:07:32;;;;;;;4.38;2.63;;;;;;;16.51;48.00;100994.34;5090359;28;20032;-54
2022/06/01 00:09:58;;;;;;;5.75;2.63;;;;;;;16.54;48.20;100995.94;5086559;28;20029;-54
2022/06/01 00:12:23;;;;;;;4.43;2.65;;;;;;;16.56;48.64;100997.47;5088424;28;20024;-54
2022/06/01 00:14:49;;;;;;;2.97;2.47;;;;;;;16.58;48.83;100997.34;5089667;28;20547;-51
2022/06/01 00:17:16;;;;;;;4.55;3.15;;;;;;;16.59;49.41;100991.94;5081733;28;20072;-51
2022/06/01 00:19:42;;;;;;;6.73;3.27;;;;;;;16.55;49.91;100984.34;5086302;28;20039;-55
2022/06/01 00:22:17;;;;;;;56.90;11.02;;;;;;;16.46;50.50;100981.44;5087501;28;20147;-54
2022/06/01 00:24:44;;;;;;;127.30;44.75;;;;;;;16.39;51.33;100972.28;5084451;28;20036;-52
2022/06/01 00:27:12;;;;;;;62.08;11.40;;;;;;;16.40;0.00;100967.78;5085971;28;20587;-54
2022/06/01 00:29:38;;;;;;;6.35;3.72;;;;;;;-147.11;100.00;61570.13;5083342;28;20413;-54
2022/06/01 00:32:05;;;;;;;3.85;3.45;;;;;;;-147.11;100.00;61570.13;5088586;28;20035;-52
2022/06/01 00:34:31;;;;;;;4.05;3.17;;;;;;;-147.11;100.00;61570.13;5096346;28;20032;-51
2022/06/01 00:36:56;;;;;;;4.45;3.15;;;;;;;-147.11;100.00;61570.13;5079798;28;20093;-55
2022/06/01 00:39:22;;;;;;;4.20;3.40;;;;;;;-147.11;100.00;61570.13;5088094;28;20963;-54
2022/06/01 00:41:48;;;;;;;4.15;3.25;;;;;;;-147.11;100.00;61570.13;5086921;28;20389;-51
2022/06/01 00:44:13;;;;;;;5.43;3.40;;;;;;;-147.11;100.00;61570.13;5086544;28;20055;-54
2022/06/01 00:46:39;;;;;;;4.90;3.45;;;;;;;-147.11;100.00;61570.13;5084494;28;20059;-54
2022/06/01 00:49:17;;;;;;;6.30;3.67;;;;;;;-147.11;100.00;61570.13;5085165;28;20449;-54
2022/06/01 00:51:44;;;;;;;4.10;3.10;;;;;;;-147.11;100.00;61570.13;5087284;28;20028;-55
2022/06/01 00:54:11;;;;;;;5.35;3.40;;;;;;;-147.11;100.00;61570.13;5093461;28;20024;-52
2022/06/01 00:56:47;;;;;;;5.28;3.45;;;;;;;-147.11;100.00;61570.13;5084810;28;20043;-52
2022/06/01 00:59:17;;;;;;;5.75;3.00;;;;;;;-147.11;100.00;61570.13;5085843;28;20032;-52
2022/06/01 01:01:43;;;;;;;4.70;3.17;;;;;;;-147.11;100.00;61570.13;5088706;28;20063;-55
2022/06/01 01:04:10;;;;;;;5.35;3.83;;;;;;;-147.11;100.00;61570.13;5082802;28;20032;-53
2022/06/01 01:06:40;;;;;;;4.57;3.50;;;;;;;-147.11;100.00;61570.13;5085309;28;20038;-55
2022/06/01 01:09:07;;;;;;;4.90;3.35;;;;;;;-147.11;100.00;61570.13;5090258;28;20055;-54
2022/06/01 01:11:40;;;;;;;4.93;3.50;;;;;;;-147.11;100.00;61570.13;5082981;28;20039;-54
2022/06/01 01:14:06;;;;;;;5.95;3.67;;;;;;;-147.11;100.00;61570.13;5085618;28;20024;-52
2022/06/01 01:16:32;;;;;;;4.50;3.30;;;;;;;16.40;51.77;100967.78;5093949;28;20077;-54
2022/06/01 01:18:59;;;;;;;5.05;3.40;;;;;;;16.34;57.09;101008.09;5083748;28;20106;-51
2022/06/01 01:21:39;;;;;;;4.88;3.33;;;;;;;16.35;57.65;101015.94;5089291;28;20039;-54
2022/06/01 01:24:20;;;;;;;5.38;3.47;;;;;;;16.35;57.77;101004.47;5096039;28;20025;-54
2022/06/01 01:26:48;;;;;;;5.28;3.60;;;;;;;16.33;57.64;101011.75;5093454;28;20031;-54
2022/06/01 01:29:15;;;;;;;5.93;3.83;;;;;;;16.26;57.75;101006.88;5088704;28;20027;-53
2022/06/01 01:31:43;;;;;;;4.38;3.60;;;;;;;16.21;58.11;101024.16;5089545;28;20043;-54
2022/06/01 01:34:09;;;;;;;5.32;3.50;;;;;;;16.14;58.22;101019.28;5081923;28;20024;-54
2022/06/01 01:36:45;;;;;;;4.25;3.85;;;;;;;15.98;58.52;101026.75;5095373;28;20506;-54
2022/06/01 01:39:13;;;;;;;5.22;3.92;;;;;;;15.90;58.82;101026.50;5086882;28;20071;-55
2022/06/01 01:41:51;;;;;;;6.65;4.47;;;;;;;15.90;58.83;101026.50;5094346;28;20032;-53
2022/06/01 01:44:29;;;;;;;4.70;3.47;;;;;;;15.94;58.80;101028.78;5083447;28;20031;-53
2022/06/01 01:46:57;;;;;;;6.45;3.67;;;;;;;15.97;58.71;101036.53;5086447;28;20054;-54
2022/06/01 01:49:30;;;;;;;6.32;3.60;;;;;;;15.99;58.92;101033.75;5082221;28;20032;-53
2022/06/01 01:51:59;;;;;;;4.97;4.40;;;;;;;16.04;59.13;101028.94;5086022;28;20110;-53
2022/06/01 01:54:49;;;;;;;5.88;3.67;;;;;;;16.12;59.53;101029.19;5086089;28;20024;-52
2022/06/01 01:57:39;;;;;;;6.75;4.07;;;;;;;16.16;59.81;101016.53;5089308;28;20487;-54
2022/06/01 02:00:21;;;;;;;;;;;;;;;16.18;59.14;101022.59;5081212;28;20034;-55
2022/06/01 02:03:05;;;;;;;5.28;4.10;;;;;;;16.21;59.39;101019.66;5087474;28;19923;-53
2022/06/01 02:06:05;;;;;;;5.50;4.30;;;;;;;16.22;59.58;101018.69;5090889;28;20504;-52
2022/06/01 02:08:46;;;;;;;4.05;3.40;;;;;;;16.21;59.92;101016.19;5089170;28;20512;-53
2022/06/01 02:14:05;;;;;;;4.30;3.85;;;;;;;16.09;59.78;101010.88;5091036;28;20115;-54
2022/06/01 02:16:36;;;;;;;4.63;4.15;;;;;;;16.01;59.99;101015.91;5089733;28;20016;-53
2022/06/01 02:19:06;;;;;;;5.25;3.83;;;;;;;15.94;60.45;101014.69;5082647;28;20548;-53
2022/06/01 02:21:32;;;;;;;7.20;3.42;;;;;;;15.93;60.48;101020.97;5083794;28;20043;-54
2022/06/01 02:24:00;;;;;;;4.25;3.85;;;;;;;15.93;60.55;101024.44;5080984;28;20227;-51
2022/06/01 02:26:26;;;;;;;5.05;3.50;;;;;;;15.95;60.73;101030.47;5088467;28;20020;-51
2022/06/01 02:29:01;;;;;;;4.75;4.05;;;;;;;15.99;60.91;101033.75;5094809;28;20035;-51
2022/06/01 02:31:28;;;;;;;5.30;3.60;;;;;;;15.99;60.80;101034.59;5079145;28;20025;-51
2022/06/01 02:33:55;;;;;;;5.53;3.58;;;;;;;16.00;60.62;101035.44;5082970;28;20028;-55
2022/06/01 02:36:22;;;;;;;6.13;3.85;;;;;;;16.01;60.73;101037.13;5084163;28;20063;-53
2022/06/01 02:38:51;;;;;;;4.57;3.63;;;;;;;16.04;61.05;101030.72;5085471;28;20567;-53
2022/06/01 02:44:01;;;;;;;4.47;3.58;;;;;;;16.10;61.31;101038.25;5071937;28;20044;-53
2022/06/01 02:46:27;;;;;;;4.03;3.60;;;;;;;16.12;61.19;101042.47;5076245;28;20028;-50
2022/06/01 02:48:53;;;;;;;4.78;3.80;;;;;;;16.14;61.11;101043.19;5081722;28;20059;-53
2022/06/01 02:51:19;;;;;;;5.10;3.50;;;;;;;16.14;61.42;101024.59;5080078;28;20100;-54
2022/06/01 02:53:46;;;;;;;6.40;4.00;;;;;;;16.17;61.47;101028.00;5083888;28;20042;-53
2022/06/01 02:56:12;;;;;;;5.97;4.18;;;;;;;16.14;61.34;101019.28;5081389;28;20528;-51
2022/06/01 02:58:38;;;;;;;8.35;3.97;;;;;;;15.98;61.18;101018.78;5087222;28;20044;-51
2022/06/01 03:01:04;;;;;;;5.18;4.22;;;;;;;15.71;61.66;101019.88;5085982;28;20031;-51
2022/06/01 03:03:30;;;;;;;4.55;4.13;;;;;;;15.50;62.05;101025.81;5079457;28;20627;-51
2022/06/01 03:05:55;;;;;;;4.43;3.72;;;;;;;15.35;62.49;101027.81;5082406;28;20028;-54
2022/06/01 03:08:21;;;;;;;6.88;4.13;;;;;;;15.21;62.73;101030.63;5085591;28;20052;-53
2022/06/01 03:10:48;;;;;;;5.68;4.25;;;;;;;15.13;62.88;101023.25;5087747;28;20036;-52
2022/06/01 03:13:14;;;;;;;5.30;3.95;;;;;;;15.00;62.93;101025.91;5088723;28;20028;-51
2022/06/01 03:15:39;;;;;;;6.57;3.92;;;;;;;14.93;62.84;101028.16;5085095;28;20039;-53
2022/06/01 03:18:05;;;;;;;5.28;3.78;;;;;;;14.82;63.14;101025.44;5082320;28;20024;-54
2022/06/01 03:20:33;;;;;;;4.25;3.15;;;;;;;14.60;63.39;101021.63;5085784;28;20077;-53
2022/06/01 03:23:00;;;;;;;5.93;3.22;;;;;;;14.39;63.77;101023.97;5085860;28;20643;-52
2022/06/01 03:25:27;;;;;;;5.50;2.78;;;;;;;14.27;63.85;101028.34;5083667;28;20533;-50
2022/06/01 03:27:55;;;;;;;4.57;2.60;;;;;;;14.16;64.08;101022.91;5082354;28;20043;-52
2022/06/01 03:30:21;;;;;;;17.40;4.45;;;;;;;14.09;64.15;101019.84;5083825;28;20511;-53
2022/06/01 03:32:47;;;;;;;3.55;2.67;;;;;;;14.04;64.03;101021.97;5088793;28;20114;-52
2022/06/01 03:35:15;;;;;;;4.47;2.70;;;;;;;14.02;64.33;101021.22;5089066;28;20040;-54
2022/06/01 03:37:41;;;;;;;3.67;2.60;;;;;;;14.00;64.26;101016.03;5080584;28;20053;-54
2022/06/01 03:40:07;;;;;;;3.35;2.08;;;;;;;14.03;63.90;101022.91;5085206;28;20036;-52
2022/06/01 03:42:33;;;;;;;3.15;2.15;;;;;;;13.95;63.79;101031.38;5094413;28;20038;-53
2022/06/01 03:47:44;;;;;;;2.47;2.15;;;;;;;13.85;63.87;101030.28;5091116;28;20137;-54
2022/06/01 03:50:10;;;;;;;5.40;2.10;;;;;;;13.88;63.86;101032.72;5093055;28;20034;-51
2022/06/01 03:52:36;;;;;;;5.18;2.40;;;;;;;13.87;63.59;101036.31;5084739;28;20061;-51
2022/06/01 03:55:03;;;;;;;2.65;1.92;;;;;;;13.86;63.32;101043.41;5088211;28;20020;-53
2022/06/01 03:57:28;;;;;;;3.60;1.90;;;;;;;13.86;63.12;101043.41;5090484;28;20947;-51
2022/06/01 03:59:54;;;;;;;2.92;1.83;;;;;;;13.87;63.65;101057.47;5088180;28;20077;-52
2022/06/01 04:02:19;;;;;;;5.10;1.92;;;;;;;13.82;63.68;101047.22;5086709;28;20400;-52
2022/06/01 04:04:44;;;;;;;3.30;2.25;;;;;;;13.71;63.78;101050.56;5087340;28;20660;-55
2022/06/01 04:07:10;;;;;;;6.72;1.67;;;;;;;13.67;64.01;101053.53;5087971;28;20396;-54
2022/06/01 04:09:35;;;;;;;3.08;1.98;;;;;;;13.63;64.12;101058.16;5087205;28;20032;-53
2022/06/01 04:12:01;;;;;;;3.05;1.95;;;;;;;13.64;63.97;101048.44;5082327;28;20129;-52
2022/06/01 04:14:26;;;;;;;2.42;1.70;;;;;;;13.63;64.11;101050.25;5097631;28;20031;-53
2022/06/01 04:16:52;;;;;;;2.10;1.73;;;;;;;13.70;63.48;101040.94;5095011;28;20040;-52
2022/06/01 04:19:18;;;;;;;4.07;1.52;;;;;;;13.79;63.40;101038.66;5093452;28;20107;-52
2022/06/01 04:21:49;;;;;;;4.63;2.25;;;;;;;13.89;63.44;101031.78;5091109;28;20115;-54
2022/06/01 04:24:19;;;;;;;3.25;2.13;;;;;;;14.06;64.20;101032.44;5092373;28;20077;-54
2022/06/01 04:26:45;;;;;;;3.40;2.75;;;;;;;14.22;63.93;101035.75;5088203;28;20048;-53
2022/06/01 04:29:11;;;;;;;3.83;2.38;;;;;;;14.40;63.99;101035.44;5082855;28;20442;-55
2022/06/01 04:31:37;;;;;;;3.03;2.10;;;;;;;14.47;63.78;101032.25;5090731;28;20067;-55
2022/06/01 04:34:04;;;;;;;2.78;1.80;;;;;;;14.50;63.45;101036.47;5086481;28;20027;-55
2022/06/01 04:36:30;;;;;;;2.38;2.03;;;;;;;14.42;63.42;101039.66;5093826;28;20070;-53
2022/06/01 04:38:56;;;;;;;3.13;2.10;;;;;;;14.43;63.48;101027.28;5090753;28;20043;-51
2022/06/01 04:41:21;;;;;;;2.65;2.17;;;;;;;14.47;63.60;101026.09;5088739;28;20032;-52
2022/06/01 04:43:47;;;;;;;8.35;4.30;;;;;;;14.55;63.35;101013.19;5090164;28;20036;-55
2022/06/01 04:46:12;;;;;;;7.95;5.28;;;;;;;14.64;63.42;101016.97;5093524;28;20065;-54
2022/06/01 04:48:37;;;;;;;3.58;2.40;;;;;;;14.72;63.10;101011.16;5087140;28;20035;-54
2022/06/01 04:51:03;;;;;;;2.75;2.13;;;;;;;14.78;63.21;101008.94;5093898;28;20032;-55
2022/06/01 04:53:29;;;;;;;4.60;2.03;;;;;;;14.84;62.96;101020.03;5095018;28;20021;-55
2022/06/01 04:55:54;;;;;;;3.95;2.20;;;;;;;14.90;62.84;101017.78;5084833;28;20404;-52
2022/06/01 04:58:20;;;;;;;2.85;2.05;;;;;;;14.96;63.01;101026.25;5088252;28;20028;-53
2022/06/01 05:00:46;;;;;;;2.40;2.20;;;;;;;15.01;62.95;101024.97;5085258;28;20047;-54
2022/06/01 05:03:12;;;;;;;3.35;2.13;;;;;;;15.09;63.07;101035.00;5084351;28;20032;-53
2022/06/01 05:05:39;;;;;;;2.47;2.28;;;;;;;15.08;62.59;101038.63;5091830;28;20046;-53
2022/06/01 05:08:15;;;;;;;5.25;3.33;;;;;;;15.02;62.56;101028.47;5088683;28;20506;-51
2022/06/01 05:10:41;;;;;;;5.60;3.35;;;;;;;15.03;62.88;101024.88;5085078;28;20437;-54
2022/06/01 05:13:07;;;;;;;3.92;2.20;;;;;;;15.09;63.16;101005.84;5083210;28;20123;-53
2022/06/01 05:15:33;;;;;;;2.33;2.13;;;;;;;15.16;63.17;101017.72;5084595;28;20058;-55
2022/06/01 05:17:59;;;;;;;4.65;2.28;;;;;;;15.23;63.14;101008.34;5085611;28;20036;-53
2022/06/01 05:20:24;;;;;;;2.30;2.00;;;;;;;15.30;62.75;101018.50;5086615;28;20057;-53
2022/06/01 05:22:50;;;;;;;2.72;2.20;;;;;;;15.35;62.94;101014.56;5086158;28;20032;-51
2022/06/01 05:25:16;;;;;;;3.35;2.35;;;;;;;15.42;62.96;101024.72;5084115;28;20020;-54
2022/06/01 05:27:41;;;;;;;2.40;2.20;;;;;;;15.45;62.85;101025.34;5082974;28;20055;-54
2022/06/01 05:30:07;;;;;;;3.92;2.40;;;;;;;15.49;62.88;101029.47;5095910;28;20028;-54
2022/06/01 05:32:33;;;;;;;4.07;2.40;;;;;;;15.51;62.66;101032.00;5087257;28;20123;-54
2022/06/01 05:34:59;;;;;;;4.50;2.60;;;;;;;15.53;62.56;101041.50;5095179;28;20497;-55
2022/06/01 05:37:24;;;;;;;5.75;3.33;;;;;;;15.55;62.17;101047.56;5093524;28;20456;-52
2022/06/01 05:39:50;;;;;;;4.75;2.70;;;;;;;15.58;61.89;101058.91;5084472;28;20020;-53
2022/06/01 05:42:16;;;;;;;2.63;2.22;;;;;;;15.56;61.63;101061.69;5092773;28;20086;-55
2022/06/01 05:44:41;;;;;;;3.60;2.13;;;;;;;15.52;61.29;101061.03;5087105;28;20052;-53
2022/06/01 05:47:07;;;;;;;2.70;2.00;;;;;;;15.46;61.07;101056.19;5089192;28;20035;-55
2022/06/01 05:49:32;;;;;;;2.40;2.10;;;;;;;15.44;61.12;101067.84;5090821;28;20028;-53
2022/06/01 05:51:58;;;;;;;275.65;58.35;;;;;;;15.44;61.23;101066.06;5091206;28;20023;-51
2022/06/01 05:54:23;;;;;;;56.57;15.23;;;;;;;15.44;61.27;101066.06;5097110;28;20024;-55
2022/06/01 05:56:49;;;;;;;460.98;151.07;;;;;;;15.44;61.37;101062.56;5094249;28;20036;-55
2022/06/01 05:59:15;;;;;;;747.63;316.00;;;;;;;15.45;61.52;101065.13;5095137;28;20465;-54
2022/06/01 06:01:41;;;;;;;608.92;229.18;;;;;;;15.57;62.75;101062.50;5097003;28;20400;-55
2022/06/01 06:04:07;;;;;;;4.10;3.13;;;;;;;15.60;62.56;101062.28;5088626;28;20472;-53
2022/06/01 06:06:33;;;;;;;3.60;3.28;;;;;;;15.64;62.11;101066.41;5096483;28;20128;-55
2022/06/01 06:09:03;;;;;;;4.57;2.78;;;;;;;15.67;62.19;101067.03;5089110;28;20040;-55
2022/06/01 06:11:33;;;;;;;6.65;2.80;;;;;;;15.68;62.07;101074.03;5090930;28;20033;-53
2022/06/01 06:14:00;;;;;;;2.88;2.65;;;;;;;15.72;62.07;101066.69;5094051;28;20483;-55
2022/06/01 06:16:28;;;;;;;4.60;2.60;;;;;;;15.75;61.96;101071.75;5100478;28;20035;-55
2022/06/01 06:18:56;;;;;;;11.18;3.38;;;;;;;15.76;61.90;101076.09;5093735;28;20023;-53
2022/06/01 06:21:23;;;;;;;159.65;36.65;;;;;;;15.77;61.87;101074.28;5091264;28;20076;-55
2022/06/01 06:23:49;;;;;;;641.83;172.13;;;;;;;15.78;62.07;101079.50;5087798;28;20031;-54
2022/06/01 06:26:15;;;;;;;205.15;53.67;;;;;;;15.78;62.04;101079.50;5093219;28;20036;-50
2022/06/01 06:28:40;;;;;;;3.30;2.92;;;;;;;15.78;62.14;101079.50;5090222;28;20097;-50
2022/06/01 06:31:06;;;;;;;4.80;2.75;;;;;;;15.79;61.95;101083.84;5086080;28;20024;-51
2022/06/01 06:33:31;;;;;;;3.70;2.63;;;;;;;15.79;61.95;101078.53;5096245;28;20032;-54
2022/06/01 06:35:59;;;;;;;4.70;2.72;;;;;;;15.80;62.05;101074.94;5088513;28;20040;-53
2022/06/01 06:38:27;;;;;;;5.95;3.00;;;;;;;15.81;61.68;101076.59;5086118;28;20067;-51
2022/06/01 06:40:54;;;;;;;2.92;2.35;;;;;;;15.85;61.70;101077.25;5089971;28;20040;-52
2022/06/01 06:43:22;;;;;;;4.70;2.67;;;;;;;15.89;61.70;101073.41;5090608;28;20077;-55
2022/06/01 06:45:49;;;;;;;4.55;2.72;;;;;;;15.93;61.39;101076.69;5095857;28;20024;-51
2022/06/01 06:48:15;;;;;;;4.38;2.25;;;;;;;15.94;61.36;101078.38;5091780;28;20085;-54
2022/06/01 06:50:40;;;;;;;3.00;2.20;;;;;;;15.97;61.29;101080.78;5090039;28;20447;-54
2022/06/01 06:53:06;;;;;;;5.60;2.50;;;;;;;16.02;61.33;101078.63;5092532;28;20040;-51
2022/06/01 06:55:31;;;;;;;3.35;2.28;;;;;;;16.07;61.41;101073.84;5085951;28;20094;-52
2022/06/01 06:57:56;;;;;;;5.18;2.80;;;;;;;16.13;61.33;101086.63;5080428;28;20048;-55
2022/06/01 07:00:22;;;;;;;3.65;2.95;;;;;;;16.16;61.40;101080.25;5086478;28;20035;-53
2022/06/01 07:02:47;;;;;;;2.90;2.58;;;;;;;16.23;61.57;101085.94;5090839;28;20036;-50
2022/06/01 07:06:08;;;;;;;4.13;2.50;;;;;;;16.28;61.42;101086.41;5087168;28;20098;-55
2022/06/01 07:08:01;;;;;;;3.90;2.17;;;;;;;16.33;61.33;101086.91;5088872;28;20487;-53
2022/06/01 07:10:27;;;;;;;3.55;2.42;;;;;;;16.38;61.40;101082.13;5089900;28;20031;-52
2022/06/01 07:12:53;;;;;;;2.60;2.35;;;;;;;16.42;61.17;101088.84;5088509;28;20105;-51
2022/06/01 07:15:18;;;;;;;4.47;2.90;;;;;;;16.46;61.07;101086.84;5092307;28;20073;-51
2022/06/01 07:17:43;;;;;;;3.88;2.60;;;;;;;16.52;60.98;101085.50;5088685;28;20437;-51
2022/06/01 07:20:10;;;;;;;2.92;2.25;;;;;;;16.58;60.74;101088.53;5090931;28;20028;-53
2022/06/01 07:22:35;;;;;;;4.53;2.60;;;;;;;16.61;60.04;101080.31;5096009;28;20032;-55
2022/06/01 07:25:01;;;;;;;2.75;2.25;;;;;;;16.62;59.63;101086.47;5087977;28;20045;-52
2022/06/01 07:27:26;;;;;;;3.90;2.22;;;;;;;16.63;59.53;101087.34;5090397;28;20122;-53
2022/06/01 07:29:51;;;;;;;4.25;2.30;;;;;;;16.64;59.42;101084.53;5087843;28;20028;-53
2022/06/01 07:32:17;;;;;;;2.30;2.10;;;;;;;16.67;59.55;101079.00;5096498;28;20031;-50
2022/06/01 07:34:42;;;;;;;3.85;2.97;;;;;;;16.72;59.59;101087.44;5090661;28;20107;-50
2022/06/01 07:45:20;;;;;;;1.95;1.60;;;;;;;16.80;58.22;101083.34;5091003;28;20085;-54
2022/06/01 07:47:46;;;;;;;4.85;1.90;;;;;;;16.81;58.14;101090.34;5087752;28;20043;-52
2022/06/01 07:50:11;;;;;;;4.43;2.30;;;;;;;16.84;58.19;101087.47;5090027;28;20032;-51
2022/06/01 07:52:36;;;;;;;5.60;3.83;;;;;;;16.91;58.37;101091.31;5078077;28;20027;-52
2022/06/01 07:55:02;;;;;;;2.50;2.05;;;;;;;17.00;58.11;101092.41;5088876;28;20032;-50
2022/06/01 07:57:28;;;;;;;2.50;1.75;;;;;;;17.08;57.96;101086.50;5096896;28;20028;-50
2022/06/01 07:59:54;;;;;;;1.80;1.60;;;;;;;17.16;57.81;101089.41;5085839;28;20072;-52
2022/06/01 08:02:19;;;;;;;2.60;1.77;;;;;;;17.26;57.83;101087.69;5089801;28;20036;-52
2022/06/01 08:04:45;;;;;;;4.10;1.98;;;;;;;17.36;57.93;101090.44;5086322;28;20033;-53
2022/06/01 08:07:11;;;;;;;5.05;1.95;;;;;;;17.45;57.96;101083.53;5088492;28;20032;-54
2022/06/01 08:09:36;;;;;;;4.68;1.75;;;;;;;17.51;57.67;101080.34;5092867;28;20035;-51
2022/06/01 08:14:46;;;;;;;5.05;2.30;;;;;;;17.51;56.59;101072.38;5082986;28;20043;-52
2022/06/01 08:17:11;;;;;;;1.95;1.65;;;;;;;17.50;56.23;101078.66;5088284;28;20024;-52
2022/06/01 08:19:37;;;;;;;6.35;3.40;;;;;;;17.50;55.96;101076.00;5086578;28;20034;-51
2022/06/01 08:22:03;;;;;;;5.38;2.55;;;;;;;17.49;55.82;101072.50;5088870;28;20067;-51
2022/06/01 08:24:30;;;;;;;3.53;2.22;;;;;;;17.52;55.78;101074.06;5090095;28;20030;-51
2022/06/01 08:26:56;;;;;;;4.80;3.00;;;;;;;17.55;55.57;101078.28;5090969;28;20051;-53
2022/06/01 08:29:21;;;;;;;3.00;2.20;;;;;;;17.55;55.53;101068.50;5091153;28;20016;-53
2022/06/01 08:31:47;;;;;;;5.57;2.50;;;;;;;17.56;55.43;101072.84;5092544;28;20042;-50
2022/06/01 08:34:15;;;;;;;1.60;1.40;;;;;;;17.58;54.82;101067.38;5091729;28;20111;-53
2022/06/01 08:36:41;;;;;;;5.68;3.80;;;;;;;17.62;54.42;101079.47;5086611;28;20059;-52
2022/06/01 08:39:06;;;;;;;3.58;2.13;;;;;;;17.64;54.32;101080.19;5094923;28;20082;-52
2022/06/01 08:41:35;;;;;;;3.80;2.10;;;;;;;17.71;54.38;101072.56;5095548;28;20027;-49
2022/06/01 08:44:06;;;;;;;2.87;1.63;;;;;;;17.77;53.78;101072.88;5089737;28;20560;-53
2022/06/01 08:46:32;;;;;;;3.53;1.30;;;;;;;17.82;53.01;101072.50;5093884;28;20272;-53
2022/06/01 08:49:33;;;;;;;1.83;1.40;;;;;;;17.84;52.78;101073.22;5090984;28;20120;-50
2022/06/01 08:51:59;;;;;;;5.28;1.70;;;;;;;17.91;52.78;101074.41;5088985;28;20039;-51
2022/06/01 08:54:25;;;;;;;3.30;1.50;;;;;;;17.94;52.58;101071.47;5101155;28;20062;-51
2022/06/01 08:56:55;;;;;;;2.42;1.55;;;;;;;18.00;52.52;101071.97;5088878;28;20032;-52
2022/06/01 08:59:30;;;;;;;1.95;1.50;;;;;;;18.05;52.38;101075.09;5094854;28;20079;-52
2022/06/01 09:02:13;;;;;;;12.82;8.00;;;;;;;18.13;52.84;101077.94;5096817;28;20099;-53
2022/06/01 09:05:01;;;;;;;2.85;2.20;;;;;;;18.21;52.55;101075.47;5097921;28;20106;-52
2022/06/01 09:07:45;;;;;;;2.45;1.70;;;;;;;18.25;51.81;101076.88;5089445;28;20032;-48
2022/06/01 09:10:16;;;;;;;1.70;1.58;;;;;;;18.24;51.79;101077.03;5092463;28;20392;-50
2022/06/01 09:12:43;;;;;;;2.55;1.85;;;;;;;18.23;51.57;101073.50;5091939;28;20039;-51
2022/06/01 09:15:17;;;;;;;2.50;1.90;;;;;;;18.22;51.22;101085.16;5091533;28;20024;-51
2022/06/01 09:17:43;;;;;;;3.83;2.00;;;;;;;18.22;51.29;101069.19;5090487;28;20077;-50
2022/06/01 09:23:00;;;;;;;4.63;1.90;;;;;;;18.26;51.03;101073.25;5094917;28;20035;-48
2022/06/01 09:25:32;;;;;;;5.80;3.75;;;;;;;18.32;51.23;101060.41;5093607;28;19912;-48
2022/06/01 09:28:01;;;;;;;4.78;3.53;;;;;;;18.37;51.08;101068.84;5087990;28;20032;-48
2022/06/01 09:30:40;;;;;;;2.30;2.10;;;;;;;18.39;50.71;101058.88;5091865;28;20061;-48
2022/06/01 09:33:25;;;;;;;2.38;1.80;;;;;;;18.42;50.81;101058.63;5096286;28;20153;-48
2022/06/01 09:36:06;;;;;;;2.63;1.98;;;;;;;18.47;50.37;101052.88;5089271;28;20125;-52
2022/06/01 09:38:48;;;;;;;4.07;3.30;;;;;;;18.53;50.48;101042.53;5088424;28;20040;-48
2022/06/01 09:41:27;;;;;;;4.60;1.80;;;;;;;18.63;50.07;101037.25;5094318;28;20043;-49
2022/06/01 09:43:57;;;;;;;5.60;1.98;;;;;;;18.71;49.91;101045.44;5087765;28;20436;-51
2022/06/01 09:46:34;;;;;;;2.35;1.83;;;;;;;18.86;49.74;101047.72;5093055;28;20036;-51
2022/06/01 09:49:11;;;;;;;2.50;1.70;;;;;;;19.01;49.35;101046.41;5087111;28;20032;-49
2022/06/01 09:51:41;;;;;;;3.72;2.00;;;;;;;19.13;49.26;101044.47;5083986;28;20123;-51
2022/06/01 09:54:22;;;;;;;2.55;1.83;;;;;;;19.25;49.16;101037.16;5088400;28;20020;-50
2022/06/01 09:56:48;;;;;;;2.53;1.88;;;;;;;19.35;48.77;101042.53;5084020;28;20109;-51
2022/06/01 10:08:15;;;;;;;2.33;1.98;;;;;;;19.48;47.39;101012.91;5087509;28;20458;-51
2022/06/01 10:11:09;;;;;;;3.70;2.20;;;;;;;19.53;46.77;101012.47;5087118;28;20043;-54
2022/06/01 10:13:49;;;;;;;2.67;2.17;;;;;;;19.55;46.28;101011.34;5091003;28;20506;-52
2022/06/01 10:17:00;;;;;;;3.53;2.15;;;;;;;19.49;46.29;101002.09;5087543;28;20445;-52
2022/06/01 10:19:34;;;;;;;4.47;2.40;;;;;;;19.46;46.54;100998.84;5089424;28;20168;-49
2022/06/01 10:22:12;;;;;;;2.60;2.10;;;;;;;19.44;46.71;100998.97;5095866;28;20047;-50
2022/06/01 10:24:42;;;;;;;2.92;2.28;;;;;;;19.45;46.26;100998.00;5086272;28;20089;-53
2022/06/01 10:27:09;;;;;;;5.13;2.35;;;;;;;19.48;46.28;100995.06;5091838;28;20031;-49
2022/06/01 10:29:50;;;;;;;4.28;2.30;;;;;;;19.45;46.53;100995.34;5101054;28;20490;-51
2022/06/01 10:32:38;;;;;;;12.25;4.30;;;;;;;19.39;46.39;100997.72;5090547;28;20031;-48
2022/06/01 10:35:30;;;;;;;3.95;2.50;;;;;;;19.40;46.06;100986.94;5092208;28;20390;-48
2022/06/01 10:38:20;;;;;;;8.80;2.67;;;;;;;19.37;47.78;100987.19;5093538;28;20077;-48
2022/06/01 10:41:07;;;;;;;5.28;2.35;;;;;;;19.37;49.16;100987.19;5087202;28;20552;-49
2022/06/01 10:43:32;;;;;;;2.95;2.40;;;;;;;19.40;49.29;100999.41;5086171;28;20061;-50
2022/06/01 10:46:36;;;;;;;2.85;2.30;;;;;;;19.36;48.76;100995.38;5086566;28;20024;-54
2022/06/01 10:49:07;;;;;;;2.40;2.20;;;;;;;19.31;48.32;100993.09;5076032;28;20036;-53
2022/06/01 10:51:35;;;;;;;3.67;2.38;;;;;;;19.22;48.38;100992.09;5089986;28;20182;-51
2022/06/01 10:54:04;;;;;;;3.15;2.60;;;;;;;19.11;48.45;100987.75;5090015;28;20012;-52
2022/06/01 10:56:31;;;;;;;3.85;2.70;;;;;;;19.02;48.56;100984.09;5088824;28;20055;-50
2022/06/01 10:59:03;;;;;;;5.40;2.75;;;;;;;19.00;48.83;100980.72;5088516;28;20149;-49
2022/06/01 11:01:55;;;;;;;4.75;3.00;;;;;;;19.02;48.81;100977.91;5088823;28;20028;-51
2022/06/01 11:04:26;;;;;;;3.75;2.40;;;;;;;19.04;48.50;100981.28;5089406;28;20040;-52
2022/06/01 11:07:23;;;;;;;2.60;2.22;;;;;;;19.12;48.46;100983.25;5088490;28;20036;-52
2022/06/01 11:10:12;;;;;;;3.38;2.67;;;;;;;19.17;47.66;100976.50;5085922;28;20547;-49
2022/06/01 11:12:46;;;;;;;4.63;2.40;;;;;;;19.16;47.56;100982.81;5083496;28;20403;-52
2022/06/01 11:15:23;;;;;;;4.78;2.20;;;;;;;19.14;47.04;100982.13;5086103;28;20494;-52
2022/06/01 11:18:06;;;;;;;4.97;2.65;;;;;;;19.12;47.25;100975.25;5084776;28;20036;-53
2022/06/01 11:20:53;;;;;;;4.32;2.50;;;;;;;19.11;47.27;100985.09;5088216;28;20082;-50
2022/06/01 11:23:36;;;;;;;3.10;2.28;;;;;;;19.18;47.47;100982.72;5088194;28;20105;-49
2022/06/01 11:26:07;;;;;;;2.92;1.92;;;;;;;19.30;47.12;100986.06;5088754;28;20545;-49
2022/06/01 11:29:01;;;;;;;2.28;1.75;;;;;;;19.38;45.21;100986.22;5093696;28;20601;-52
2022/06/01 11:31:29;;;;;;;3.75;1.98;;;;;;;19.46;44.55;100981.00;5060682;28;20043;-52
2022/06/01 11:34:06;;;;;;;2.25;1.73;;;;;;;19.52;44.16;100979.59;5091598;28;20043;-49
2022/06/01 11:36:39;;;;;;;3.05;1.90;;;;;;;19.58;43.77;100979.03;5081705;28;20020;-48
2022/06/01 11:39:19;;;;;;;5.10;1.80;;;;;;;19.61;43.57;100981.44;5089398;28;20429;-51
2022/06/01 11:42:11;;;;;;;;;;;;;;;19.60;43.83;100982.41;5089036;28;20031;-49
2022/06/01 11:44:39;;;;;;;2.83;1.73;;;;;;;19.65;43.22;100964.16;5083348;28;19916;-48
2022/06/01 11:47:12;;;;;;;2.53;1.88;;;;;;;19.73;42.33;100975.94;5086604;28;20094;-49
2022/06/01 11:49:41;;;;;;;4.03;1.80;;;;;;;19.78;42.62;100974.50;5087182;28;20090;-51
2022/06/01 11:52:16;;;;;;;4.35;1.90;;;;;;;19.80;42.09;100972.53;5089760;28;20484;-52
2022/06/01 11:54:41;;;;;;;2.05;1.85;;;;;;;19.82;41.95;100977.72;5090678;28;20572;-54
2022/06/01 11:57:22;;;;;;;2.97;1.70;;;;;;;19.79;41.54;100973.53;5090804;28;20024;-48
2022/06/01 12:00:20;;;;;;;3.45;1.90;;;;;;;19.80;41.87;100974.38;5087530;28;20096;-48
2022/06/01 12:02:50;;;;;;;2.45;1.50;;;;;;;19.82;41.80;100984.91;5095883;28;20028;-52
2022/06/01 12:05:28;;;;;;;2.13;1.70;;;;;;;19.78;41.88;100979.03;5098333;28;20112;-53
2022/06/01 12:07:58;;;;;;;2.13;1.40;;;;;;;19.72;41.60;100991.13;5089459;28;21266;-53